createdAt,value
2022-11-29T07:11:35.403Z,101107.84
2022-11-29T07:14:04.374Z,101111.06
2022-11-29T07:16:57.651Z,101116.06
2022-11-29T07:19:45.641Z,101110.78
2022-11-29T07:22:53.385Z,101105.03
2022-11-29T07:25:44.803Z,101104.16
2022-11-29T07:28:43.510Z,101110.63
2022-11-29T07:31:50.515Z,101113.88
2022-11-29T07:40:24.257Z,101112.34
2022-11-29T08:02:57.160Z,101134.81
2022-11-29T08:05:32.097Z,101132.19
2022-11-29T08:08:11.754Z,101133.34
2022-11-29T08:10:50.714Z,101130.00
2022-11-29T08:13:25.018Z,101135.44
2022-11-29T08:15:53.539Z,101127.31
2022-11-29T08:18:22.551Z,101131.69
2022-11-29T08:21:00.996Z,101131.41
2022-11-29T08:23:29.544Z,101132.28
2022-11-29T08:26:04.616Z,101129.38
2022-11-29T08:28:33.129Z,101123.59
2022-11-29T08:31:05.350Z,101116.94
2022-11-29T08:33:38.135Z,101124.81
2022-11-29T08:36:18.734Z,101133.97
2022-11-29T08:38:47.720Z,101119.66
2022-11-29T08:41:17.887Z,101122.66
2022-11-29T08:43:49.369Z,101120.69
2022-11-29T08:46:18.926Z,101121.81
2022-11-29T08:48:48.732Z,101105.28
2022-11-29T08:51:21.659Z,101104.19
2022-11-29T08:53:51.817Z,101117.47
2022-11-29T08:57:10.068Z,101108.88
2022-11-29T08:59:10.608Z,101125.31
2022-11-29T09:01:40.613Z,101101.91
2022-11-29T09:04:18.957Z,101117.81
2022-11-29T09:06:49.789Z,101124.00
2022-11-29T09:09:19.502Z,101121.19
2022-11-29T09:11:49.726Z,101122.84
2022-11-29T09:14:23.575Z,101119.81
2022-11-29T09:17:06.285Z,101133.91
2022-11-29T09:19:35.090Z,101112.91
2022-11-29T09:22:04.097Z,101109.13
2022-11-29T09:24:50.521Z,101123.50
2022-11-29T09:27:29.642Z,101095.00
2022-11-29T09:30:02.209Z,101115.13
2022-11-29T09:32:32.331Z,101112.69
2022-11-29T09:35:04.762Z,101112.63
2022-11-29T09:37:37.193Z,101120.84
2022-11-29T09:40:05.833Z,101123.28
2022-11-29T09:43:22.026Z,101104.37
2022-11-29T09:46:18.397Z,101123.50
2022-11-29T09:49:08.958Z,101118.16
2022-11-29T09:52:04.818Z,101108.81
2022-11-29T09:55:02.047Z,101108.94
2022-11-29T09:57:40.463Z,101111.63
2022-11-29T10:00:22.919Z,101110.22
2022-11-29T10:03:52.023Z,101103.34
2022-11-29T10:06:40.189Z,101083.47
2022-11-29T10:09:33.518Z,101103.22
2022-11-29T10:12:32.824Z,101103.66
2022-11-29T10:15:14.219Z,101097.13
2022-11-29T10:17:51.511Z,101100.28
2022-11-29T10:20:21.667Z,101077.69
2022-11-29T10:23:05.304Z,101095.13
2022-11-29T10:25:47.867Z,101087.94
2022-11-29T10:28:26.550Z,101094.81
2022-11-29T10:30:57.211Z,101074.13
2022-11-29T10:33:35.370Z,101085.88
2022-11-29T10:36:15.487Z,101085.22
2022-11-29T10:38:46.614Z,101076.34
2022-11-29T10:41:22.533Z,101077.47
2022-11-29T10:43:52.157Z,101077.56
2022-11-29T10:46:40.424Z,101072.47
2022-11-29T10:49:17.693Z,101064.00
2022-11-29T10:51:49.089Z,101065.84
2022-11-29T10:54:42.165Z,101067.00
2022-11-29T10:57:22.421Z,101075.34
2022-11-29T11:00:00.551Z,101024.63
2022-11-29T11:02:29.094Z,101064.41
2022-11-29T11:04:58.973Z,101067.25
2022-11-29T11:07:35.288Z,101067.25
2022-11-29T11:10:35.358Z,101070.72
2022-11-29T11:13:07.061Z,101072.25
2022-11-29T11:15:35.481Z,101065.59
2022-11-29T11:18:21.539Z,101042.03
2022-11-29T11:20:57.668Z,101057.06
2022-11-29T11:23:32.174Z,101053.47
2022-11-29T11:26:26.163Z,101043.50
2022-11-29T11:29:18.771Z,101049.94
2022-11-29T11:31:56.881Z,101045.16
2022-11-29T11:34:27.590Z,101052.03
2022-11-29T11:37:38.343Z,101053.13
2022-11-29T11:40:35.678Z,101049.69
2022-11-29T11:43:29.016Z,101045.19
2022-11-29T11:46:05.121Z,101044.44
2022-11-29T11:48:57.643Z,101048.47
2022-11-29T11:51:34.229Z,101048.97
2022-11-29T11:54:04.629Z,101042.53
2022-11-29T11:56:36.115Z,101036.72
2022-11-29T11:59:04.635Z,101046.56
2022-11-29T12:01:39.830Z,100915.84
2022-11-29T12:04:15.822Z,101036.84
2022-11-29T12:07:03.510Z,101048.97
2022-11-29T12:09:56.052Z,101046.09
2022-11-29T12:12:32.588Z,101044.94
2022-11-29T12:15:05.219Z,101047.19
2022-11-29T12:18:19.166Z,101007.47
2022-11-29T12:20:57.359Z,100980.28
2022-11-29T12:23:31.294Z,101047.19
2022-11-29T12:26:34.474Z,101049.78
2022-11-29T12:29:18.850Z,101050.53
2022-11-29T12:32:14.451Z,101039.81
2022-11-29T12:35:31.718Z,101038.28
2022-11-29T12:38:06.697Z,100968.97
2022-11-29T12:40:59.617Z,101047.06
2022-11-29T12:43:56.616Z,101039.94
2022-11-29T12:46:28.351Z,101045.16
2022-11-29T12:49:13.171Z,101037.53
2022-11-29T12:52:02.707Z,101039.31
2022-11-29T12:55:00.188Z,101036.25
2022-11-29T12:58:03.962Z,101041.97
2022-11-29T13:00:47.885Z,101043.50
2022-11-29T13:03:33.793Z,101036.13
2022-11-29T13:06:16.930Z,101043.03
2022-11-29T13:09:22.348Z,101036.50
2022-11-29T13:12:06.114Z,101039.22
2022-11-29T13:14:44.432Z,101041.25
2022-11-29T13:17:52.339Z,101021.03
2022-11-29T13:20:43.005Z,101040.87
2022-11-29T13:24:07.322Z,101047.78
2022-11-29T13:26:30.768Z,101050.63
2022-11-29T13:29:01.536Z,101024.47
2022-11-29T13:31:30.912Z,101043.13
2022-11-29T13:34:41.296Z,101020.56
2022-11-29T13:37:38.952Z,101042.19
2022-11-29T13:40:24.076Z,101031.13
2022-11-29T13:43:33.259Z,101043.75
2022-11-29T13:46:28.354Z,101045.19
2022-11-29T13:48:59.634Z,101050.28
2022-11-29T13:51:41.512Z,101049.66
2022-11-29T13:54:31.062Z,101063.59
2022-11-29T13:57:09.947Z,101029.81
2022-11-29T13:59:47.273Z,101052.19
2022-11-29T14:02:36.449Z,101049.44
2022-11-29T14:05:08.029Z,100995.12
2022-11-29T14:08:26.106Z,101043.72
2022-11-29T14:11:14.342Z,101034.91
2022-11-29T14:17:05.743Z,101055.22
2022-11-29T14:19:37.630Z,101051.69
2022-11-29T14:22:24.323Z,101050.63
2022-11-29T14:25:16.344Z,101050.37
2022-11-29T14:28:12.913Z,101047.06
2022-11-29T14:30:46.787Z,101046.59
2022-11-29T14:33:37.988Z,101048.72
2022-11-29T14:36:15.277Z,101038.75
2022-11-29T14:39:07.845Z,101039.81
2022-11-29T14:42:14.958Z,101050.13
2022-11-29T14:44:56.467Z,101042.62
2022-11-29T14:47:47.208Z,101043.22
2022-11-29T14:50:40.406Z,101044.78
2022-11-29T14:53:30.969Z,101038.03
2022-11-29T14:59:49.614Z,101045.72
2022-11-29T15:02:48.697Z,101048.72
2022-11-29T15:06:07.438Z,101046.22
2022-11-29T15:08:54.817Z,101025.66
2022-11-29T15:11:46.793Z,101055.50
2022-11-29T15:14:39.725Z,101056.19
2022-11-29T15:17:22.978Z,101058.94
2022-11-29T15:20:43.457Z,101056.81
2022-11-29T15:23:24.123Z,101059.66
2022-11-29T15:26:23.378Z,101061.81
2022-11-29T15:29:30.226Z,101075.25
2022-11-29T15:32:04.209Z,101071.91
2022-11-29T15:34:50.532Z,101063.81
2022-11-29T15:37:40.552Z,101061.41
2022-11-29T15:43:35.524Z,101055.38
2022-11-29T15:46:03.784Z,101063.09
2022-11-29T15:48:33.460Z,101063.09
2022-11-29T15:51:45.520Z,101064.31
2022-11-29T15:54:29.263Z,100982.28
2022-11-29T15:57:03.039Z,101061.22
2022-11-29T15:59:55.505Z,101048.59
2022-11-29T16:02:46.319Z,101080.00
2022-11-29T16:05:31.247Z,101079.28
2022-11-29T16:08:25.251Z,101084.78
2022-11-29T16:11:06.745Z,101090.34
2022-11-29T16:13:37.135Z,101053.25
2022-11-29T16:16:37.641Z,101093.91
2022-11-29T16:19:45.008Z,101092.34
2022-11-29T16:22:24.842Z,101090.81
2022-11-29T16:25:16.512Z,101089.53
2022-11-29T16:28:12.406Z,101013.66
2022-11-29T16:30:44.724Z,101097.00
2022-11-29T16:33:23.857Z,101069.28
2022-11-29T16:36:15.462Z,101089.03
2022-11-29T16:38:54.566Z,101054.41
2022-11-29T16:41:46.479Z,101066.56
2022-11-29T16:45:06.827Z,101083.69
2022-11-29T16:47:58.957Z,101082.03
2022-11-29T16:50:29.628Z,101043.72
2022-11-29T16:53:50.460Z,101081.19
2022-11-29T16:56:39.333Z,101088.44
2022-11-29T16:59:25.906Z,101079.28
2022-11-29T17:02:03.871Z,101034.69
2022-11-29T17:04:32.024Z,101063.00
2022-11-29T17:07:16.649Z,101077.25
2022-11-29T17:09:44.718Z,101041.22
2022-11-29T17:12:47.961Z,101080.09
2022-11-29T17:15:38.698Z,101036.31
2022-11-29T17:18:06.914Z,101047.66
2022-11-29T17:20:41.533Z,101079.00
2022-11-29T17:23:10.032Z,101080.34
2022-11-29T17:25:41.505Z,101086.59
2022-11-29T17:28:37.033Z,101060.56
2022-11-29T17:31:34.213Z,101043.91
2022-11-29T17:34:15.250Z,101063.16
2022-11-29T17:36:49.943Z,101044.34
2022-11-29T17:42:16.113Z,101099.28
2022-11-29T17:44:44.346Z,101096.00
2022-11-29T17:47:13.805Z,101090.06
2022-11-29T17:49:48.755Z,101102.72
2022-11-29T17:52:23.507Z,101103.78
2022-11-29T17:54:58.438Z,101096.66
2022-11-29T17:57:34.535Z,101100.59
2022-11-29T18:00:06.435Z,101100.72
2022-11-29T18:02:45.536Z,101101.19
2022-11-29T18:05:13.630Z,101099.00
2022-11-29T18:08:00.151Z,101109.47
2022-11-29T18:10:34.305Z,101088.72
2022-11-29T18:13:02.687Z,101108.94
2022-11-29T18:15:32.992Z,101106.34
2022-11-29T18:18:24.209Z,101092.50
2022-11-29T18:20:56.856Z,101120.97
2022-11-29T18:23:39.811Z,101130.34
2022-11-29T18:34:29.744Z,101120.12
2022-11-29T18:37:18.030Z,101119.69
2022-11-29T18:40:23.676Z,101005.47
2022-11-29T18:42:52.208Z,101072.78
2022-11-29T18:45:40.289Z,101113.00
2022-11-29T18:51:16.605Z,101124.56
2022-11-29T18:56:36.401Z,101129.44
2022-11-29T18:59:17.814Z,101137.72
2022-11-29T19:02:02.543Z,101139.69
2022-11-29T19:04:31.472Z,101103.59
2022-11-29T19:06:59.645Z,101099.94
2022-11-29T19:09:54.418Z,101132.28
2022-11-29T19:12:23.039Z,101092.72
2022-11-29T19:14:51.704Z,101092.00
2022-11-29T19:17:23.952Z,101120.44
2022-11-29T19:19:56.351Z,101121.66
2022-11-29T19:22:24.459Z,101129.38
2022-11-29T19:25:00.762Z,101136.75
2022-11-29T19:27:43.843Z,101112.59
2022-11-29T19:30:15.621Z,101136.53
2022-11-29T19:33:14.313Z,101136.41
2022-11-29T19:35:42.573Z,101029.53
2022-11-29T19:38:10.974Z,101143.31
2022-11-29T19:40:39.650Z,101110.56
2022-11-29T19:43:14.576Z,101136.28
2022-11-29T19:46:41.036Z,101133.22
2022-11-29T19:49:27.517Z,101074.91
2022-11-29T19:52:04.194Z,101128.34
2022-11-29T19:54:35.970Z,101128.13
2022-11-29T19:57:04.266Z,101125.00
2022-11-29T19:59:56.222Z,101125.00
2022-11-29T20:02:25.161Z,101120.94
2022-11-29T20:04:53.798Z,101119.53
2022-11-29T20:07:21.865Z,101118.81
2022-11-29T20:09:54.755Z,101125.50
2022-11-29T20:12:31.147Z,101115.00
2022-11-29T20:15:01.054Z,101109.06
2022-11-29T20:17:34.266Z,101129.06
2022-11-29T20:20:02.594Z,101126.66
2022-11-29T20:22:31.069Z,101115.00
2022-11-29T20:24:59.294Z,101129.88
2022-11-29T20:27:30.014Z,101119.28
2022-11-29T20:30:11.691Z,101105.84
2022-11-29T20:32:40.222Z,101123.47
2022-11-29T20:35:11.880Z,101104.31
2022-11-29T20:38:30.588Z,101120.84
2022-11-29T20:41:06.262Z,101131.66
2022-11-29T20:43:44.341Z,101124.63
2022-11-29T20:46:47.277Z,101126.22
2022-11-29T20:49:17.449Z,101077.16
2022-11-29T20:52:02.581Z,101125.25
2022-11-29T20:55:00.983Z,101083.50
2022-11-29T20:57:29.711Z,101071.09
2022-11-29T21:00:40.255Z,101112.63
2022-11-29T21:03:26.626Z,101112.66
2022-11-29T21:06:08.409Z,101063.44
2022-11-29T21:08:36.832Z,101099.09
2022-11-29T21:11:15.876Z,101105.88
2022-11-29T21:13:55.934Z,101098.19
2022-11-29T21:16:29.101Z,101086.62
2022-11-29T21:19:25.207Z,101102.13
2022-11-29T21:22:24.176Z,101099.38
2022-11-29T21:25:33.877Z,101104.03
2022-11-29T21:28:15.678Z,101097.69
2022-11-29T21:33:45.692Z,101093.91
2022-11-29T21:36:19.334Z,101087.94
2022-11-29T21:39:08.618Z,101088.31
2022-11-29T21:44:36.595Z,101109.03
2022-11-29T21:47:04.857Z,101093.56
2022-11-29T21:49:52.967Z,101102.94
2022-11-29T21:52:32.739Z,101113.16
2022-11-29T21:55:01.403Z,101040.72
2022-11-29T22:00:47.983Z,101087.13
2022-11-29T22:03:28.901Z,101092.97
2022-11-29T22:06:20.853Z,101083.81
2022-11-29T22:09:19.038Z,101036.94
2022-11-29T22:12:32.383Z,101082.72
2022-11-29T22:15:04.999Z,101032.78
2022-11-29T22:17:36.644Z,101067.28
2022-11-29T22:20:16.327Z,101050.28
2022-11-29T22:22:45.398Z,101091.06
2022-11-29T22:25:13.350Z,101070.97
2022-11-29T22:27:58.260Z,101090.22
2022-11-29T22:30:36.249Z,101033.87
2022-11-29T22:33:08.959Z,101086.44
2022-11-29T22:36:22.145Z,101085.00
2022-11-29T22:39:06.829Z,101087.84
2022-11-29T22:41:39.557Z,101091.66
2022-11-29T22:44:08.357Z,101082.03
2022-11-29T22:46:54.346Z,101054.19
2022-11-29T22:49:33.281Z,101074.28
2022-11-29T22:52:03.922Z,101073.81
2022-11-29T22:54:31.939Z,101052.78
2022-11-29T22:57:00.291Z,101040.31
2022-11-29T22:59:28.978Z,101061.09
2022-11-29T23:02:03.479Z,100957.69
2022-11-29T23:04:45.979Z,101065.50
2022-11-29T23:07:15.056Z,101069.06
2022-11-29T23:09:43.377Z,101055.88
2022-11-29T23:12:21.655Z,101074.16
2022-11-29T23:14:55.835Z,101019.84
2022-11-29T23:17:36.586Z,101068.59
2022-11-29T23:20:12.525Z,101065.97
2022-11-29T23:22:57.651Z,101061.31
2022-11-29T23:25:50.327Z,101065.00
2022-11-29T23:28:26.204Z,101064.28
2022-11-29T23:31:15.788Z,101056.53
2022-11-29T23:33:59.315Z,101007.00
2022-11-29T23:36:59.272Z,101052.00
2022-11-29T23:39:27.478Z,101059.41
2022-11-29T23:42:00.699Z,101022.91
2022-11-29T23:44:42.953Z,101052.75
2022-11-29T23:47:21.499Z,101052.47
2022-11-29T23:50:09.159Z,101055.00
2022-11-29T23:52:41.115Z,101007.47
2022-11-29T23:55:29.250Z,101058.44
2022-11-29T23:58:07.461Z,101050.94
